createdAt,value
2023-09-10T00:01:21.078Z,71.63
2023-09-10T00:03:49.082Z,70.58
2023-09-10T00:06:16.547Z,69.76
2023-09-10T00:08:44.091Z,67.45
2023-09-10T00:11:11.807Z,66.97
2023-09-10T00:13:39.840Z,63.79
2023-09-10T00:16:07.929Z,61.12
2023-09-10T00:18:36.679Z,58.32
2023-09-10T00:21:04.622Z,55.28
2023-09-10T00:23:31.776Z,52.97
2023-09-10T00:25:59.380Z,51.44
2023-09-10T00:28:27.616Z,48.86
2023-09-10T00:30:55.549Z,46.53
2023-09-10T00:33:23.205Z,44.51
2023-09-10T00:35:51.056Z,42.06
2023-09-10T00:38:18.773Z,40.53
2023-09-10T00:40:46.238Z,39.12
2023-09-10T00:43:13.714Z,38.16
2023-09-10T00:45:40.950Z,37.39
2023-09-10T00:48:08.099Z,35.85
2023-09-10T00:50:35.917Z,34.72
2023-09-10T00:53:03.363Z,33.39
2023-09-10T00:55:30.959Z,32.24
2023-09-10T00:57:58.473Z,31.21
2023-09-10T01:00:27.094Z,30.08
2023-09-10T01:02:54.394Z,29.71
2023-09-10T01:05:22.077Z,28.98
2023-09-10T01:07:49.123Z,28.26
2023-09-10T01:10:16.847Z,27.30
2023-09-10T01:13:02.227Z,27.03
2023-09-10T01:15:41.292Z,26.16
2023-09-10T01:18:17.729Z,25.95
2023-09-10T01:20:51.613Z,25.02
2023-09-10T01:23:39.254Z,24.59
2023-09-10T01:26:06.823Z,24.28
2023-09-10T01:28:34.114Z,24.57
2023-09-10T01:31:02.111Z,23.30
2023-09-10T01:33:36.611Z,22.94
2023-09-10T01:36:11.503Z,22.50
2023-09-10T01:39:03.047Z,22.63
2023-09-10T01:41:31.005Z,22.38
2023-09-10T01:43:59.013Z,22.61
2023-09-10T01:46:26.525Z,22.54
2023-09-10T01:48:54.477Z,21.95
2023-09-10T01:51:22.202Z,21.62
2023-09-10T01:53:50.081Z,21.84
2023-09-10T01:56:17.664Z,22.02
2023-09-10T01:58:45.448Z,21.88
2023-09-10T02:01:12.983Z,21.90
2023-09-10T02:03:40.381Z,21.55
2023-09-10T02:06:07.913Z,21.16
2023-09-10T02:08:35.631Z,20.05
2023-09-10T02:11:06.328Z,20.30
2023-09-10T02:13:34.111Z,19.71
2023-09-10T02:16:02.268Z,19.47
2023-09-10T02:18:30.555Z,19.07
2023-09-10T02:20:58.537Z,20.10
2023-09-10T02:23:26.862Z,20.37
2023-09-10T02:25:54.227Z,20.80
2023-09-10T02:28:24.584Z,20.57
2023-09-10T02:30:52.287Z,20.65
2023-09-10T02:33:20.061Z,20.37
2023-09-10T02:35:47.829Z,20.18
2023-09-10T02:38:15.304Z,20.24
2023-09-10T02:40:44.113Z,20.81
2023-09-10T02:43:11.751Z,21.11
2023-09-10T02:45:39.730Z,21.09
2023-09-10T02:48:07.667Z,22.50
2023-09-10T02:50:35.203Z,22.45
2023-09-10T02:53:02.668Z,22.44
2023-09-10T02:55:30.024Z,22.61
2023-09-10T02:57:57.288Z,22.28
2023-09-10T03:00:26.527Z,22.46
2023-09-10T03:02:55.464Z,22.50
2023-09-10T03:05:23.415Z,22.85
2023-09-10T03:07:55.467Z,23.03
2023-09-10T03:10:22.798Z,23.37
2023-09-10T03:12:50.191Z,23.93
2023-09-10T03:15:17.891Z,24.44
2023-09-10T03:17:45.586Z,24.98
2023-09-10T03:20:13.311Z,24.82
2023-09-10T03:22:41.430Z,24.83
2023-09-10T03:25:09.586Z,24.88
2023-09-10T03:27:37.561Z,25.47
2023-09-10T03:30:08.614Z,25.67
2023-09-10T03:32:36.322Z,25.02
2023-09-10T03:35:05.552Z,25.73
2023-09-10T03:37:33.225Z,25.83
2023-09-10T03:40:01.140Z,25.82
2023-09-10T03:42:28.481Z,26.10
2023-09-10T03:44:56.025Z,26.36
2023-09-10T03:47:24.023Z,26.92
2023-09-10T03:49:51.368Z,28.26
2023-09-10T03:52:20.527Z,29.12
2023-09-10T03:54:48.762Z,29.45
2023-09-10T03:57:16.271Z,29.99
2023-09-10T03:59:44.397Z,30.23
2023-09-10T04:02:14.824Z,30.84
2023-09-10T04:04:42.791Z,30.23
2023-09-10T04:07:10.248Z,29.86
2023-09-10T04:09:38.187Z,31.41
2023-09-10T04:12:06.092Z,31.81
2023-09-10T04:14:33.927Z,31.92
2023-09-10T04:17:01.617Z,32.49
2023-09-10T04:19:28.785Z,32.54
2023-09-10T04:21:56.320Z,33.08
2023-09-10T04:24:24.588Z,33.87
2023-09-10T04:26:52.190Z,34.43
2023-09-10T04:29:21.225Z,35.39
2023-09-10T04:31:49.275Z,35.65
2023-09-10T04:34:16.969Z,35.00
2023-09-10T04:36:44.388Z,34.96
2023-09-10T04:39:12.236Z,34.93
2023-09-10T04:44:10.323Z,34.85
2023-09-10T04:46:38.393Z,34.43
2023-09-10T04:49:06.633Z,34.58
2023-09-10T04:51:34.044Z,33.85
2023-09-10T04:54:01.945Z,33.60
2023-09-10T04:56:29.147Z,33.10
2023-09-10T04:58:56.641Z,33.52
2023-09-10T05:01:24.172Z,34.23
2023-09-10T05:03:51.471Z,34.04
2023-09-10T05:06:20.933Z,33.67
2023-09-10T05:08:48.994Z,34.18
2023-09-10T05:11:18.286Z,34.83
2023-09-10T05:13:45.667Z,36.13
2023-09-10T05:16:13.281Z,37.35
2023-09-10T05:18:42.272Z,37.76
2023-09-10T05:21:10.542Z,38.23
2023-09-10T05:23:38.729Z,37.78
2023-09-10T05:26:06.779Z,37.96
2023-09-10T05:28:34.110Z,37.57
2023-09-10T05:31:09.100Z,37.02
2023-09-10T05:33:39.334Z,38.87
2023-09-10T05:36:06.993Z,38.88
2023-09-10T05:38:34.270Z,39.81
2023-09-10T05:41:03.195Z,39.90
2023-09-10T05:43:31.202Z,38.37
2023-09-10T05:45:58.562Z,38.41
2023-09-10T05:48:27.082Z,38.78
2023-09-10T05:50:58.248Z,38.13
2023-09-10T05:53:27.065Z,37.41
2023-09-10T05:55:55.003Z,37.83
2023-09-10T05:58:22.422Z,37.00
2023-09-10T06:00:52.884Z,37.30
2023-09-10T06:03:20.336Z,37.15
2023-09-10T06:05:49.607Z,37.64
2023-09-10T06:08:17.284Z,38.16
2023-09-10T06:10:45.607Z,38.25
2023-09-10T06:13:13.414Z,37.95
2023-09-10T06:15:41.764Z,37.27
2023-09-10T06:18:09.115Z,37.60
2023-09-10T06:20:36.569Z,37.05
2023-09-10T06:23:04.886Z,37.96
2023-09-10T06:25:33.589Z,38.23
2023-09-10T06:28:01.942Z,38.62
2023-09-10T06:30:29.728Z,38.29
2023-09-10T06:32:57.570Z,38.71
2023-09-10T06:35:26.609Z,38.59
2023-09-10T06:37:54.617Z,38.64
2023-09-10T06:40:21.963Z,38.51
2023-09-10T06:42:49.877Z,39.02
2023-09-10T06:45:32.388Z,39.61
2023-09-10T06:47:59.754Z,38.99
2023-09-10T06:50:27.266Z,37.99
2023-09-10T06:52:54.761Z,38.09
2023-09-10T06:55:22.463Z,37.97
2023-09-10T06:57:50.230Z,37.22
2023-09-10T07:00:18.526Z,37.52
2023-09-10T07:02:46.538Z,37.86
2023-09-10T07:05:14.440Z,38.14
2023-09-10T07:07:41.924Z,38.72
2023-09-10T07:10:11.356Z,38.21
2023-09-10T07:12:38.451Z,38.08
2023-09-10T07:15:06.652Z,39.00
2023-09-10T07:17:34.123Z,39.48
2023-09-10T07:20:01.640Z,38.87
2023-09-10T07:22:29.203Z,39.19
2023-09-10T07:24:56.984Z,38.63
2023-09-10T07:27:24.100Z,38.12
2023-09-10T07:29:51.904Z,36.95
2023-09-10T07:32:19.375Z,36.05
2023-09-10T07:34:46.663Z,36.35
2023-09-10T07:37:14.584Z,36.02
2023-09-10T07:39:42.068Z,34.83
2023-09-10T07:42:09.845Z,35.05
2023-09-10T07:44:37.243Z,34.66
2023-09-10T07:47:05.806Z,34.24
2023-09-10T07:49:35.635Z,34.58
2023-09-10T07:52:05.447Z,33.35
2023-09-10T07:54:32.722Z,33.36
2023-09-10T07:57:00.607Z,32.61
2023-09-10T07:59:28.121Z,32.11
2023-09-10T08:01:55.341Z,32.37
2023-09-10T08:04:22.947Z,32.48
2023-09-10T08:06:50.441Z,32.73
2023-09-10T08:09:17.587Z,32.29
2023-09-10T08:11:45.101Z,31.95
2023-09-10T08:14:13.016Z,31.48
2023-09-10T08:16:40.695Z,31.68
2023-09-10T08:19:08.371Z,31.36
2023-09-10T08:21:35.472Z,31.63
2023-09-10T08:24:03.171Z,31.64
2023-09-10T08:26:30.412Z,31.76
2023-09-10T08:28:57.678Z,31.59
2023-09-10T08:31:25.461Z,32.10
2023-09-10T08:33:52.612Z,32.30
2023-09-10T08:36:20.270Z,32.48
2023-09-10T08:38:48.784Z,32.05
2023-09-10T08:41:49.955Z,33.02
2023-09-10T08:44:20.901Z,32.52
2023-09-10T08:46:50.272Z,32.96
2023-09-10T08:49:17.494Z,32.80
2023-09-10T08:51:45.049Z,32.56
2023-09-10T08:54:12.638Z,32.28
2023-09-10T08:56:39.905Z,32.39
2023-09-10T08:59:07.325Z,32.41
2023-09-10T09:01:35.045Z,31.92
2023-09-10T09:04:02.886Z,32.68
2023-09-10T09:06:31.048Z,31.72
2023-09-10T09:08:58.467Z,31.51
2023-09-10T09:11:26.077Z,31.25
2023-09-10T09:13:53.678Z,31.54
2023-09-10T09:16:22.110Z,31.63
2023-09-10T09:18:49.774Z,31.36
2023-09-10T09:21:22.031Z,32.18
2023-09-10T09:24:09.704Z,32.58
2023-09-10T09:26:37.532Z,33.43
2023-09-10T09:29:05.303Z,33.06
2023-09-10T09:31:33.645Z,32.52
2023-09-10T09:34:00.845Z,31.84
2023-09-10T09:36:28.920Z,32.23
2023-09-10T09:38:56.872Z,32.02
2023-09-10T09:41:24.174Z,31.50
2023-09-10T09:43:52.046Z,31.58
2023-09-10T09:46:19.611Z,30.87
2023-09-10T09:48:47.484Z,31.31
2023-09-10T09:51:15.315Z,31.40
2023-09-10T09:53:43.780Z,31.46
2023-09-10T09:56:11.868Z,33.55
2023-09-10T09:58:39.854Z,34.00
2023-09-10T10:01:08.376Z,34.09
2023-09-10T10:03:36.018Z,35.67
2023-09-10T10:06:04.029Z,34.83
2023-09-10T10:08:31.627Z,34.50
2023-09-10T10:10:59.251Z,36.15
2023-09-10T10:13:27.735Z,36.12
2023-09-10T10:15:57.569Z,35.65
2023-09-10T10:18:29.919Z,34.99
2023-09-10T10:20:58.933Z,34.64
2023-09-10T10:23:27.253Z,35.50
2023-09-10T10:25:55.280Z,35.38
2023-09-10T10:28:22.728Z,36.30
2023-09-10T10:30:56.435Z,37.62
2023-09-10T10:33:25.393Z,35.78
2023-09-10T10:36:16.217Z,35.29
2023-09-10T10:38:46.997Z,35.47
2023-09-10T10:41:18.891Z,36.22
2023-09-10T10:43:48.333Z,37.50
2023-09-10T10:46:15.727Z,37.97
2023-09-10T10:48:43.967Z,36.62
2023-09-10T10:51:14.533Z,38.04
2023-09-10T10:53:42.622Z,38.59
2023-09-10T10:56:10.181Z,39.03
2023-09-10T10:58:41.488Z,38.00
2023-09-10T11:01:11.711Z,37.05
2023-09-10T11:03:39.265Z,38.11
2023-09-10T11:06:07.931Z,39.63
2023-09-10T11:08:36.330Z,39.17
2023-09-10T11:11:22.843Z,39.47
2023-09-10T11:14:07.298Z,39.49
2023-09-10T11:16:39.889Z,40.47
2023-09-10T11:19:07.145Z,41.20
2023-09-10T11:21:56.181Z,41.88
2023-09-10T11:24:23.541Z,41.78
2023-09-10T11:26:51.146Z,42.01
2023-09-10T11:29:21.471Z,42.90
2023-09-10T11:31:49.007Z,42.53
2023-09-10T11:34:16.360Z,42.25
2023-09-10T11:36:44.975Z,43.36
2023-09-10T11:39:16.316Z,43.00
2023-09-10T11:41:52.926Z,42.64
2023-09-10T11:44:20.691Z,43.18
2023-09-10T11:46:49.406Z,42.86
2023-09-10T11:49:16.659Z,43.34
2023-09-10T11:51:48.882Z,43.46
2023-09-10T11:54:17.779Z,43.93
2023-09-10T11:56:56.971Z,44.31
2023-09-10T11:59:30.852Z,44.73
2023-09-10T12:01:58.878Z,44.49
2023-09-10T12:04:33.552Z,44.37
2023-09-10T12:07:04.227Z,44.87
2023-09-10T12:09:32.334Z,45.23
2023-09-10T12:12:07.823Z,45.79
2023-09-10T12:14:35.478Z,45.56
2023-09-10T12:17:03.997Z,45.90
2023-09-10T12:19:32.699Z,45.59
2023-09-10T12:22:00.717Z,46.69
2023-09-10T12:24:28.044Z,47.00
2023-09-10T12:26:55.428Z,47.22
2023-09-10T12:29:23.130Z,48.03
2023-09-10T12:31:54.162Z,48.24
2023-09-10T12:34:21.707Z,48.24
2023-09-10T12:36:49.797Z,48.53
2023-09-10T12:39:24.802Z,47.97
2023-09-10T12:42:03.030Z,47.87
2023-09-10T12:44:31.728Z,48.38
2023-09-10T12:46:59.518Z,48.09
2023-09-10T12:49:27.164Z,48.71
2023-09-10T12:51:56.664Z,48.94
2023-09-10T12:54:24.454Z,48.96
2023-09-10T12:56:54.944Z,49.07
2023-09-10T12:59:22.760Z,49.86
2023-09-10T13:01:51.108Z,49.95
2023-09-10T13:04:19.314Z,50.51
2023-09-10T13:06:47.043Z,50.66
2023-09-10T13:09:14.705Z,50.20
2023-09-10T13:11:43.915Z,50.23
2023-09-10T13:14:11.266Z,50.17
2023-09-10T13:16:38.783Z,50.05
2023-09-10T13:19:06.525Z,48.84
2023-09-10T13:21:34.170Z,48.82
2023-09-10T13:24:01.619Z,48.75
2023-09-10T13:26:29.226Z,48.80
2023-09-10T13:28:57.205Z,48.83
2023-09-10T13:31:24.517Z,48.99
2023-09-10T13:33:54.794Z,49.74
2023-09-10T13:36:22.123Z,49.53
2023-09-10T13:38:49.685Z,49.79
2023-09-10T13:41:17.255Z,49.56
2023-09-10T13:43:45.049Z,51.18
2023-09-10T13:46:12.693Z,50.31
2023-09-10T13:48:40.238Z,51.70
2023-09-10T13:51:09.156Z,51.57
2023-09-10T13:53:43.504Z,51.34
2023-09-10T13:56:12.098Z,52.53
2023-09-10T13:58:39.717Z,51.34
2023-09-10T14:01:08.827Z,49.97
2023-09-10T14:03:36.295Z,50.34
2023-09-10T14:06:05.456Z,50.06
2023-09-10T14:08:33.097Z,50.06
2023-09-10T14:11:00.872Z,49.44
2023-09-10T14:13:28.541Z,49.82
2023-09-10T14:15:56.107Z,49.92
2023-09-10T14:18:23.680Z,50.04
2023-09-10T14:20:51.376Z,50.24
2023-09-10T14:23:19.190Z,50.01
2023-09-10T14:25:48.733Z,49.45
2023-09-10T14:28:19.544Z,49.72
2023-09-10T14:30:46.869Z,50.03
2023-09-10T14:33:14.142Z,49.28
2023-09-10T14:35:43.267Z,49.45
2023-09-10T14:38:11.093Z,48.92
2023-09-10T14:40:38.421Z,49.16
2023-09-10T14:43:09.031Z,48.36
2023-09-10T14:45:37.618Z,48.54
2023-09-10T14:48:05.542Z,47.28
2023-09-10T14:50:33.110Z,47.20
2023-09-10T14:53:03.606Z,47.58
2023-09-10T14:55:32.596Z,47.52
2023-09-10T14:57:59.914Z,47.60
2023-09-10T15:00:27.398Z,47.14
2023-09-10T15:02:54.754Z,47.13
2023-09-10T15:05:22.414Z,46.66
2023-09-10T15:07:50.220Z,46.82
2023-09-10T15:10:17.606Z,47.22
2023-09-10T15:12:45.414Z,47.18
2023-09-10T15:15:13.240Z,47.04
2023-09-10T15:17:40.950Z,46.44
2023-09-10T15:20:11.977Z,46.53
2023-09-10T15:22:40.173Z,46.67
2023-09-10T15:25:09.391Z,47.10
2023-09-10T15:27:37.137Z,46.49
2023-09-10T15:30:05.321Z,46.96
2023-09-10T15:32:32.846Z,46.47
2023-09-10T15:35:00.622Z,46.39
2023-09-10T15:37:28.545Z,46.40
2023-09-10T15:39:56.018Z,46.28
2023-09-10T15:42:23.546Z,46.12
2023-09-10T15:44:51.044Z,46.71
2023-09-10T15:47:18.843Z,46.43
2023-09-10T15:49:46.194Z,46.63
2023-09-10T15:52:14.547Z,46.33
2023-09-10T15:54:41.938Z,46.31
2023-09-10T15:57:09.629Z,46.71
2023-09-10T15:59:37.077Z,46.83
2023-09-10T16:02:32.909Z,46.65
2023-09-10T16:05:01.125Z,46.63
2023-09-10T16:07:28.721Z,46.75
2023-09-10T16:09:56.277Z,46.88
2023-09-10T16:12:23.713Z,46.89
2023-09-10T16:14:50.908Z,47.19
2023-09-10T16:17:18.575Z,47.24
2023-09-10T16:19:46.132Z,48.24
2023-09-10T16:22:14.680Z,49.49
2023-09-10T16:24:41.800Z,50.59
2023-09-10T16:27:09.313Z,51.19
2023-09-10T16:29:37.455Z,52.10
2023-09-10T16:32:05.582Z,53.22
2023-09-10T16:34:32.894Z,53.56
2023-09-10T16:37:00.396Z,54.18
2023-09-10T16:39:28.198Z,55.45
2023-09-10T16:41:55.486Z,55.73
2023-09-10T16:44:28.663Z,56.44
2023-09-10T16:46:59.357Z,56.86
2023-09-10T16:49:27.216Z,56.68
2023-09-10T16:51:54.583Z,57.70
2023-09-10T16:54:22.112Z,58.29
2023-09-10T16:56:49.672Z,58.45
2023-09-10T16:59:17.501Z,58.33
2023-09-10T17:01:44.832Z,58.55
2023-09-10T17:04:12.227Z,59.38
2023-09-10T17:06:39.761Z,59.32
2023-09-10T17:09:07.171Z,59.79
2023-09-10T17:11:35.107Z,60.12
2023-09-10T17:14:02.613Z,60.03
2023-09-10T17:16:29.939Z,60.63
2023-09-10T17:18:57.206Z,60.89
2023-09-10T17:21:28.069Z,60.63
2023-09-10T17:23:55.699Z,60.93
2023-09-10T17:26:23.291Z,60.77
2023-09-10T17:28:51.431Z,60.96
2023-09-10T17:31:19.346Z,61.31
2023-09-10T17:33:46.464Z,61.68
2023-09-10T17:36:13.841Z,61.43
2023-09-10T17:38:41.487Z,62.09
2023-09-10T17:41:08.943Z,61.81
2023-09-10T17:43:36.849Z,62.37
2023-09-10T17:46:04.421Z,61.73
2023-09-10T17:48:31.967Z,62.68
2023-09-10T17:51:05.175Z,62.69
2023-09-10T17:53:32.999Z,62.66
2023-09-10T17:56:00.431Z,63.00
2023-09-10T17:58:28.439Z,63.64
2023-09-10T18:00:55.844Z,64.06
2023-09-10T18:03:27.070Z,63.49
2023-09-10T18:05:54.295Z,64.34
2023-09-10T18:08:21.832Z,63.93
2023-09-10T18:10:51.628Z,64.78
2023-09-10T18:13:19.007Z,64.34
2023-09-10T18:15:46.586Z,64.60
2023-09-10T18:18:14.010Z,64.76
2023-09-10T18:20:41.809Z,64.55
2023-09-10T18:23:09.817Z,64.80
2023-09-10T18:25:36.919Z,65.15
2023-09-10T18:28:04.632Z,65.46
2023-09-10T18:30:32.525Z,65.44
2023-09-10T18:33:00.481Z,65.49
2023-09-10T18:35:28.120Z,66.04
2023-09-10T18:37:55.770Z,65.85
2023-09-10T18:40:23.169Z,66.19
2023-09-10T18:42:50.536Z,66.00
2023-09-10T18:45:18.352Z,66.16
2023-09-10T18:47:51.736Z,66.35
2023-09-10T18:50:19.187Z,66.89
2023-09-10T18:52:46.436Z,67.08
2023-09-10T18:55:15.261Z,66.80
2023-09-10T18:57:42.478Z,66.81
2023-09-10T19:00:10.906Z,67.01
2023-09-10T19:02:38.457Z,66.94
2023-09-10T19:05:06.578Z,67.36
2023-09-10T19:07:34.246Z,67.68
2023-09-10T19:10:01.794Z,67.65
2023-09-10T19:12:30.108Z,67.63
2023-09-10T19:14:57.300Z,67.69
2023-09-10T19:17:24.965Z,67.50
2023-09-10T19:19:52.625Z,67.75
2023-09-10T19:22:20.009Z,68.20
2023-09-10T19:24:47.162Z,68.13
2023-09-10T19:27:16.919Z,67.84
2023-09-10T19:29:44.471Z,68.39
2023-09-10T19:32:11.910Z,67.87
2023-09-10T19:34:39.522Z,68.00
2023-09-10T19:37:09.831Z,68.26
2023-09-10T19:39:38.275Z,67.82
2023-09-10T19:42:05.905Z,68.51
2023-09-10T19:44:36.746Z,68.57
2023-09-10T19:47:04.622Z,68.61
2023-09-10T19:49:35.211Z,69.19
2023-09-10T19:52:02.405Z,68.97
2023-09-10T19:54:30.212Z,68.85
2023-09-10T19:56:57.755Z,69.38
2023-09-10T19:59:25.757Z,69.32
2023-09-10T20:01:54.033Z,68.99
2023-09-10T20:04:21.304Z,69.65
2023-09-10T20:06:59.372Z,69.47
2023-09-10T20:09:27.884Z,69.83
2023-09-10T20:11:55.145Z,69.79
2023-09-10T20:14:23.108Z,69.97
2023-09-10T20:16:50.628Z,69.48
2023-09-10T20:19:19.012Z,69.88
2023-09-10T20:21:47.700Z,69.79
2023-09-10T20:24:15.319Z,70.41
2023-09-10T20:26:42.576Z,70.75
2023-09-10T20:29:09.876Z,70.20
2023-09-10T20:31:37.318Z,70.68
2023-09-10T20:34:05.083Z,70.35
2023-09-10T20:36:32.398Z,70.28
2023-09-10T20:39:00.103Z,70.20
2023-09-10T20:41:27.325Z,70.39
2023-09-10T20:43:55.167Z,70.01
2023-09-10T20:46:22.708Z,69.90
2023-09-10T20:48:50.281Z,69.67
2023-09-10T20:51:32.474Z,69.32
2023-09-10T20:54:00.430Z,69.27
2023-09-10T20:56:27.757Z,69.36
2023-09-10T20:58:55.295Z,69.26
2023-09-10T21:01:23.055Z,69.21
2023-09-10T21:03:50.771Z,69.47
2023-09-10T21:06:18.659Z,69.45
2023-09-10T21:08:46.102Z,69.54
2023-09-10T21:11:14.542Z,69.40
2023-09-10T21:13:42.803Z,69.47
2023-09-10T21:16:12.402Z,69.17
2023-09-10T21:18:39.742Z,69.30
2023-09-10T21:21:07.383Z,69.13
2023-09-10T21:23:35.662Z,69.11
2023-09-10T21:26:06.034Z,69.18
2023-09-10T21:28:33.539Z,69.36
2023-09-10T21:31:01.110Z,69.09
2023-09-10T21:33:28.354Z,69.89
2023-09-10T21:35:56.609Z,70.03
2023-09-10T21:38:24.134Z,69.97
2023-09-10T21:40:51.394Z,70.10
2023-09-10T21:43:19.166Z,70.29
2023-09-10T21:45:46.497Z,70.62
2023-09-10T21:48:16.352Z,70.79
2023-09-10T21:50:44.211Z,70.64
2023-09-10T21:53:11.891Z,71.02
2023-09-10T21:55:39.592Z,71.21
2023-09-10T21:58:07.118Z,71.14
2023-09-10T22:00:34.759Z,71.41
2023-09-10T22:03:02.496Z,71.17
2023-09-10T22:05:29.988Z,71.92
2023-09-10T22:07:57.667Z,71.86
2023-09-10T22:10:25.369Z,71.87
2023-09-10T22:12:52.993Z,72.07
2023-09-10T22:15:20.787Z,71.89
2023-09-10T22:17:48.274Z,72.15
2023-09-10T22:20:15.958Z,71.98
2023-09-10T22:22:43.283Z,72.20
2023-09-10T22:25:14.171Z,72.21
2023-09-10T22:27:42.102Z,72.36
2023-09-10T22:30:10.419Z,72.76
2023-09-10T22:32:38.021Z,72.23
2023-09-10T22:35:06.340Z,72.41
2023-09-10T22:37:33.870Z,72.75
2023-09-10T22:40:01.503Z,72.77
2023-09-10T22:42:29.227Z,72.97
2023-09-10T22:44:57.192Z,72.82
2023-09-10T22:47:24.822Z,73.10
2023-09-10T22:49:53.455Z,73.15
2023-09-10T22:52:20.816Z,73.09
2023-09-10T22:54:47.953Z,73.28
2023-09-10T22:57:15.728Z,72.76
2023-09-10T22:59:43.048Z,73.04
2023-09-10T23:02:10.727Z,73.29
2023-09-10T23:04:38.308Z,73.21
2023-09-10T23:07:06.057Z,73.00
2023-09-10T23:09:33.566Z,72.95
2023-09-10T23:12:00.780Z,73.67
2023-09-10T23:14:28.341Z,73.49
2023-09-10T23:16:55.557Z,73.09
2023-09-10T23:19:23.104Z,73.42
2023-09-10T23:21:50.666Z,73.30
2023-09-10T23:24:18.237Z,73.55
2023-09-10T23:26:49.992Z,73.82
2023-09-10T23:29:18.189Z,73.40
2023-09-10T23:31:48.386Z,73.08
2023-09-10T23:34:16.791Z,73.44
2023-09-10T23:36:44.103Z,73.15
2023-09-10T23:39:11.587Z,73.35
2023-09-10T23:41:39.254Z,73.04
2023-09-10T23:44:06.567Z,71.42
2023-09-10T23:46:34.265Z,69.74
2023-09-10T23:49:01.593Z,67.62
2023-09-10T23:51:29.666Z,65.78
2023-09-10T23:53:57.046Z,63.02
2023-09-10T23:56:24.814Z,60.31
2023-09-10T23:58:52.446Z,58.70
